sensor_id;sensor_type;location;lat;lon;timestamp;temperature;humidity
75468;SHT30;64050;50.634;3.062;2022-10-16T09:25:49;22.89;54.37
75468;SHT30;64050;50.634;3.062;2022-10-16T09:28:16;22.95;54.34
75468;SHT30;64050;50.634;3.062;2022-10-16T09:30:44;22.96;54.53
75468;SHT30;64050;50.634;3.062;2022-10-16T09:33:12;22.93;53.86
75468;SHT30;64050;50.634;3.062;2022-10-16T09:35:40;22.89;53.71
75468;SHT30;64050;50.634;3.062;2022-10-16T09:38:08;22.89;53.56
75468;SHT30;64050;50.634;3.062;2022-10-16T09:40:36;22.93;53.76
75468;SHT30;64050;50.634;3.062;2022-10-16T09:45:03;23.16;54.02
75468;SHT30;64050;50.634;3.062;2022-10-16T09:49:18;23.25;54.57
75468;SHT30;64050;50.634;3.062;2022-10-16T09:51:48;23.23;53.67
75468;SHT30;64050;50.634;3.062;2022-10-16T09:58:51;23.28;53.19
75468;SHT30;64050;50.634;3.062;2022-10-16T10:03:31;23.30;53.17
75468;SHT30;64050;50.634;3.062;2022-10-16T10:06:24;23.23;52.98
75468;SHT30;64050;50.634;3.062;2022-10-16T10:09:00;23.17;52.86
75468;SHT30;64050;50.634;3.062;2022-10-16T12:54:27;22.38;58.67
75468;SHT30;64050;50.634;3.062;2022-10-16T13:14:47;22.86;57.96
75468;SHT30;64050;50.634;3.062;2022-10-16T13:17:58;22.92;57.58
75468;SHT30;64050;50.634;3.062;2022-10-16T13:20:35;22.96;57.36
75468;SHT30;64050;50.634;3.062;2022-10-16T13:23:34;22.96;57.18
75468;SHT30;64050;50.634;3.062;2022-10-16T13:26:43;23.03;56.94
75468;SHT30;64050;50.634;3.062;2022-10-16T13:29:15;23.08;57.24
75468;SHT30;64050;50.634;3.062;2022-10-16T13:31:42;23.13;57.07
75468;SHT30;64050;50.634;3.062;2022-10-16T13:34:14;23.18;58.11
75468;SHT30;64050;50.634;3.062;2022-10-16T13:36:48;23.20;57.36
75468;SHT30;64050;50.634;3.062;2022-10-16T13:39:22;23.18;57.01
75468;SHT30;64050;50.634;3.062;2022-10-16T13:42:11;23.16;57.41
75468;SHT30;64050;50.634;3.062;2022-10-16T13:44:44;23.18;57.42
75468;SHT30;64050;50.634;3.062;2022-10-16T13:47:32;23.20;56.81
75468;SHT30;64050;50.634;3.062;2022-10-16T13:50:18;23.21;56.65
75468;SHT30;64050;50.634;3.062;2022-10-16T13:52:44;23.20;56.50
75468;SHT30;64050;50.634;3.062;2022-10-16T13:55:15;23.24;57.04
75468;SHT30;64050;50.634;3.062;2022-10-16T13:57:43;23.23;56.50
75468;SHT30;64050;50.634;3.062;2022-10-16T14:00:22;23.23;56.97
75468;SHT30;64050;50.634;3.062;2022-10-16T14:03:21;23.24;56.44
75468;SHT30;64050;50.634;3.062;2022-10-16T14:05:49;23.23;56.46
75468;SHT30;64050;50.634;3.062;2022-10-16T14:08:17;23.24;56.19
75468;SHT30;64050;50.634;3.062;2022-10-16T14:10:48;23.21;56.43
75468;SHT30;64050;50.634;3.062;2022-10-16T14:16:19;23.20;56.68
75468;SHT30;64050;50.634;3.062;2022-10-16T14:18:53;23.23;56.32
75468;SHT30;64050;50.634;3.062;2022-10-16T14:21:23;23.21;56.34
75468;SHT30;64050;50.634;3.062;2022-10-16T14:23:49;23.20;56.36
75468;SHT30;64050;50.634;3.062;2022-10-16T14:26:18;23.21;56.02
75468;SHT30;64050;50.634;3.062;2022-10-16T14:28:47;23.23;56.29
75468;SHT30;64050;50.634;3.062;2022-10-16T14:31:26;23.27;56.01
75468;SHT30;64050;50.634;3.062;2022-10-16T14:33:52;23.25;56.08
75468;SHT30;64050;50.634;3.062;2022-10-16T14:36:18;23.25;55.84
75468;SHT30;64050;50.634;3.062;2022-10-16T14:39:17;23.25;56.01
75468;SHT30;64050;50.634;3.062;2022-10-16T14:41:49;23.25;55.70
75468;SHT30;64050;50.634;3.062;2022-10-16T14:44:22;23.25;55.57
75468;SHT30;64050;50.634;3.062;2022-10-16T14:46:53;23.24;55.51
75468;SHT30;64050;50.634;3.062;2022-10-16T14:49:20;23.27;55.51
75468;SHT30;64050;50.634;3.062;2022-10-16T14:51:48;23.25;55.67
75468;SHT30;64050;50.634;3.062;2022-10-16T14:54:16;23.27;55.59
75468;SHT30;64050;50.634;3.062;2022-10-16T14:56:54;23.23;55.45
75468;SHT30;64050;50.634;3.062;2022-10-16T14:59:30;23.21;55.42
75468;SHT30;64050;50.634;3.062;2022-10-16T15:01:58;23.20;55.42
75468;SHT30;64050;50.634;3.062;2022-10-16T15:04:24;23.21;55.50
75468;SHT30;64050;50.634;3.062;2022-10-16T15:06:50;23.27;55.60
75468;SHT30;64050;50.634;3.062;2022-10-16T15:09:15;23.24;55.46
75468;SHT30;64050;50.634;3.062;2022-10-16T15:11:41;23.18;55.40
75468;SHT30;64050;50.634;3.062;2022-10-16T15:14:13;23.13;55.43
75468;SHT30;64050;50.634;3.062;2022-10-16T15:16:39;23.10;55.53
75468;SHT30;64050;50.634;3.062;2022-10-16T15:19:05;23.06;55.58
75468;SHT30;64050;50.634;3.062;2022-10-16T15:21:32;23.02;55.64
75468;SHT30;64050;50.634;3.062;2022-10-16T15:23:59;23.02;55.68
75468;SHT30;64050;50.634;3.062;2022-10-16T15:26:26;22.95;55.96
75468;SHT30;64050;50.634;3.062;2022-10-16T15:28:53;22.99;56.04
75468;SHT30;64050;50.634;3.062;2022-10-16T15:31:20;22.99;56.07
75468;SHT30;64050;50.634;3.062;2022-10-16T15:33:50;22.96;56.01
75468;SHT30;64050;50.634;3.062;2022-10-16T15:36:31;22.92;56.08
75468;SHT30;64050;50.634;3.062;2022-10-16T15:39:19;22.85;56.13
75468;SHT30;64050;50.634;3.062;2022-10-16T15:41:46;22.80;56.17
75468;SHT30;64050;50.634;3.062;2022-10-16T15:44:20;22.76;56.25
75468;SHT30;64050;50.634;3.062;2022-10-16T15:46:48;22.73;56.28
75468;SHT30;64050;50.634;3.062;2022-10-16T15:49:13;22.71;56.33
75468;SHT30;64050;50.634;3.062;2022-10-16T15:51:41;22.68;56.40
75468;SHT30;64050;50.634;3.062;2022-10-16T15:54:07;22.68;56.42
75468;SHT30;64050;50.634;3.062;2022-10-16T15:56:33;22.61;56.51
75468;SHT30;64050;50.634;3.062;2022-10-16T15:59:02;22.61;56.49
75468;SHT30;64050;50.634;3.062;2022-10-16T16:01:28;22.58;56.58
75468;SHT30;64050;50.634;3.062;2022-10-16T16:03:57;22.53;56.60
75468;SHT30;64050;50.634;3.062;2022-10-16T16:06:23;22.53;56.64
75468;SHT30;64050;50.634;3.062;2022-10-16T16:08:51;22.49;56.67
75468;SHT30;64050;50.634;3.062;2022-10-16T16:11:18;22.47;56.73
75468;SHT30;64050;50.634;3.062;2022-10-16T16:13:45;22.44;56.77
75468;SHT30;64050;50.634;3.062;2022-10-16T16:16:12;22.42;56.85
75468;SHT30;64050;50.634;3.062;2022-10-16T16:18:41;22.41;56.86
75468;SHT30;64050;50.634;3.062;2022-10-16T16:21:07;22.41;56.86
75468;SHT30;64050;50.634;3.062;2022-10-16T16:23:35;22.41;56.92
75468;SHT30;64050;50.634;3.062;2022-10-16T16:26:15;22.41;56.93
75468;SHT30;64050;50.634;3.062;2022-10-16T16:28:53;22.37;56.97
75468;SHT30;64050;50.634;3.062;2022-10-16T16:31:20;22.35;57.01
75468;SHT30;64050;50.634;3.062;2022-10-16T16:33:48;22.34;57.09
75468;SHT30;64050;50.634;3.062;2022-10-16T16:36:14;22.31;57.06
75468;SHT30;64050;50.634;3.062;2022-10-16T16:38:39;22.30;57.13
75468;SHT30;64050;50.634;3.062;2022-10-16T16:41:17;22.30;57.13
75468;SHT30;64050;50.634;3.062;2022-10-16T16:43:44;22.28;57.20
75468;SHT30;64050;50.634;3.062;2022-10-16T16:46:10;22.28;57.21
75468;SHT30;64050;50.634;3.062;2022-10-16T16:48:37;22.24;57.25
75468;SHT30;64050;50.634;3.062;2022-10-16T16:51:08;22.25;57.29
75468;SHT30;64050;50.634;3.062;2022-10-16T16:53:46;22.25;57.25
75468;SHT30;64050;50.634;3.062;2022-10-16T16:56:14;22.25;57.31
75468;SHT30;64050;50.634;3.062;2022-10-16T16:58:40;22.24;57.31
75468;SHT30;64050;50.634;3.062;2022-10-16T17:01:06;22.28;57.68
75468;SHT30;64050;50.634;3.062;2022-10-16T17:03:34;22.37;57.91
75468;SHT30;64050;50.634;3.062;2022-10-16T17:06:03;22.41;57.78
75468;SHT30;64050;50.634;3.062;2022-10-16T17:08:31;22.44;57.61
75468;SHT30;64050;50.634;3.062;2022-10-16T17:10:57;22.52;57.92
75468;SHT30;64050;50.634;3.062;2022-10-16T17:13:33;22.65;57.65
75468;SHT30;64050;50.634;3.062;2022-10-16T17:16:03;22.68;57.65
75468;SHT30;64050;50.634;3.062;2022-10-16T17:18:31;22.73;57.52
75468;SHT30;64050;50.634;3.062;2022-10-16T17:21:06;22.77;57.50
75468;SHT30;64050;50.634;3.062;2022-10-16T17:23:34;22.83;57.23
75468;SHT30;64050;50.634;3.062;2022-10-16T17:26:12;22.76;57.05
75468;SHT30;64050;50.634;3.062;2022-10-16T17:28:40;22.76;56.98
75468;SHT30;64050;50.634;3.062;2022-10-16T17:31:13;22.76;56.94
75468;SHT30;64050;50.634;3.062;2022-10-16T17:33:40;22.75;56.90
75468;SHT30;64050;50.634;3.062;2022-10-16T17:36:07;22.79;56.86
75468;SHT30;64050;50.634;3.062;2022-10-16T17:38:34;22.77;56.82
75468;SHT30;64050;50.634;3.062;2022-10-16T17:41:21;22.73;56.86
75468;SHT30;64050;50.634;3.062;2022-10-16T17:43:48;22.75;56.92
75468;SHT30;64050;50.634;3.062;2022-10-16T17:46:21;22.71;56.93
75468;SHT30;64050;50.634;3.062;2022-10-16T17:48:50;22.66;57.02
75468;SHT30;64050;50.634;3.062;2022-10-16T17:51:20;22.65;57.10
75468;SHT30;64050;50.634;3.062;2022-10-16T17:53:48;22.71;57.29
